Terminal Aerodrome Forecast
Issued by NWS

Home | Current Version | Previous Version | Text Only | Print | Product List | Glossary On
Versions: 1 2 3 4 5 6 7 8 9 10 11 12
000
FTUS45 KABQ 260536
TAFAEG
TAF
KAEG 260536Z 2606/2706 30005KT P6SM FEW250
     FM261400 30010KT P6SM SKC
     FM261800 31013G22KT P6SM SKC
     FM270000 02014KT P6SM SKC
     FM270300 13018G28KT P6SM SKC=

USA.gov is the U.S. government's official web portal to all federal, state and local government web resources and services.